sensor_id;sensor_type;location;lat;lon;timestamp;P1;durP1;ratioP1;P2;durP2;ratioP2
54953;SDS011;40855;51.072;5.402;2023-03-31T00:00:32;10.18;;;1.60;;
54953;SDS011;40855;51.072;5.402;2023-03-31T00:02:57;10.60;;;1.48;;
54953;SDS011;40855;51.072;5.402;2023-03-31T00:05:26;9.35;;;1.67;;
54953;SDS011;40855;51.072;5.402;2023-03-31T00:07:53;14.07;;;1.88;;
54953;SDS011;40855;51.072;5.402;2023-03-31T00:10:29;6.53;;;1.30;;
54953;SDS011;40855;51.072;5.402;2023-03-31T00:12:57;7.53;;;1.30;;
54953;SDS011;40855;51.072;5.402;2023-03-31T00:15:23;6.88;;;1.23;;
54953;SDS011;40855;51.072;5.402;2023-03-31T00:17:50;6.30;;;1.20;;
54953;SDS011;40855;51.072;5.402;2023-03-31T00:20:15;10.60;;;1.60;;
54953;SDS011;40855;51.072;5.402;2023-03-31T00:22:41;4.90;;;1.45;;
54953;SDS011;40855;51.072;5.402;2023-03-31T00:25:10;7.20;;;1.30;;
54953;SDS011;40855;51.072;5.402;2023-03-31T00:27:40;15.35;;;1.77;;
54953;SDS011;40855;51.072;5.402;2023-03-31T00:30:08;8.68;;;1.63;;
54953;SDS011;40855;51.072;5.402;2023-03-31T00:32:35;8.80;;;1.88;;
54953;SDS011;40855;51.072;5.402;2023-03-31T00:35:01;12.32;;;1.80;;
54953;SDS011;40855;51.072;5.402;2023-03-31T00:37:27;9.70;;;1.63;;
54953;SDS011;40855;51.072;5.402;2023-03-31T00:39:53;7.93;;;1.77;;
54953;SDS011;40855;51.072;5.402;2023-03-31T00:42:20;9.60;;;1.90;;
54953;SDS011;40855;51.072;5.402;2023-03-31T00:47:51;11.02;;;2.22;;
54953;SDS011;40855;51.072;5.402;2023-03-31T00:50:34;7.30;;;1.40;;
54953;SDS011;40855;51.072;5.402;2023-03-31T00:53:08;9.82;;;1.70;;
54953;SDS011;40855;51.072;5.402;2023-03-31T00:55:43;10.57;;;1.80;;
54953;SDS011;40855;51.072;5.402;2023-03-31T00:58:11;10.48;;;2.05;;
54953;SDS011;40855;51.072;5.402;2023-03-31T01:00:38;8.73;;;1.88;;
54953;SDS011;40855;51.072;5.402;2023-03-31T01:03:05;14.35;;;2.47;;
54953;SDS011;40855;51.072;5.402;2023-03-31T01:08:34;15.43;;;2.35;;
54953;SDS011;40855;51.072;5.402;2023-03-31T01:11:03;13.88;;;2.20;;
54953;SDS011;40855;51.072;5.402;2023-03-31T01:13:31;13.98;;;2.20;;
54953;SDS011;40855;51.072;5.402;2023-03-31T01:16:00;23.13;;;2.78;;
54953;SDS011;40855;51.072;5.402;2023-03-31T01:18:26;14.15;;;1.95;;
54953;SDS011;40855;51.072;5.402;2023-03-31T01:27:11;20.90;;;2.78;;
54953;SDS011;40855;51.072;5.402;2023-03-31T01:41:05;22.85;;;3.55;;
54953;SDS011;40855;51.072;5.402;2023-03-31T01:44:02;22.25;;;3.28;;
54953;SDS011;40855;51.072;5.402;2023-03-31T01:46:39;22.20;;;3.03;;
54953;SDS011;40855;51.072;5.402;2023-03-31T01:49:19;26.73;;;2.83;;
54953;SDS011;40855;51.072;5.402;2023-03-31T01:52:07;20.00;;;3.13;;
54953;SDS011;40855;51.072;5.402;2023-03-31T01:55:03;21.70;;;2.97;;
54953;SDS011;40855;51.072;5.402;2023-03-31T01:57:34;28.02;;;3.10;;
54953;SDS011;40855;51.072;5.402;2023-03-31T02:02:31;24.10;;;2.42;;
54953;SDS011;40855;51.072;5.402;2023-03-31T02:05:05;19.07;;;2.57;;
54953;SDS011;40855;51.072;5.402;2023-03-31T02:08:09;15.40;;;2.58;;
54953;SDS011;40855;51.072;5.402;2023-03-31T02:10:48;21.10;;;2.35;;
54953;SDS011;40855;51.072;5.402;2023-03-31T02:13:16;17.95;;;2.47;;
54953;SDS011;40855;51.072;5.402;2023-03-31T02:15:45;14.95;;;2.60;;
54953;SDS011;40855;51.072;5.402;2023-03-31T02:18:15;23.00;;;3.00;;
54953;SDS011;40855;51.072;5.402;2023-03-31T02:20:43;15.73;;;2.72;;
54953;SDS011;40855;51.072;5.402;2023-03-31T02:23:13;12.05;;;2.15;;
54953;SDS011;40855;51.072;5.402;2023-03-31T02:25:44;13.23;;;1.88;;
54953;SDS011;40855;51.072;5.402;2023-03-31T02:28:17;11.82;;;2.00;;
54953;SDS011;40855;51.072;5.402;2023-03-31T02:30:54;14.35;;;2.63;;
54953;SDS011;40855;51.072;5.402;2023-03-31T02:33:27;17.42;;;2.10;;
54953;SDS011;40855;51.072;5.402;2023-03-31T02:35:53;11.82;;;2.20;;
54953;SDS011;40855;51.072;5.402;2023-03-31T02:38:19;19.85;;;1.83;;
54953;SDS011;40855;51.072;5.402;2023-03-31T02:40:45;12.60;;;2.22;;
54953;SDS011;40855;51.072;5.402;2023-03-31T02:43:11;18.67;;;2.42;;
54953;SDS011;40855;51.072;5.402;2023-03-31T02:45:44;9.73;;;1.35;;
54953;SDS011;40855;51.072;5.402;2023-03-31T02:48:14;12.73;;;2.13;;
54953;SDS011;40855;51.072;5.402;2023-03-31T03:02:05;16.35;;;2.00;;
54953;SDS011;40855;51.072;5.402;2023-03-31T03:04:36;11.88;;;1.92;;
54953;SDS011;40855;51.072;5.402;2023-03-31T03:15:16;8.18;;;1.63;;
54953;SDS011;40855;51.072;5.402;2023-03-31T03:17:49;13.88;;;1.38;;
54953;SDS011;40855;51.072;5.402;2023-03-31T03:20:16;9.57;;;1.08;;
54953;SDS011;40855;51.072;5.402;2023-03-31T03:22:44;11.02;;;1.67;;
54953;SDS011;40855;51.072;5.402;2023-03-31T03:25:11;5.90;;;1.13;;
54953;SDS011;40855;51.072;5.402;2023-03-31T03:27:38;8.48;;;1.85;;
54953;SDS011;40855;51.072;5.402;2023-03-31T03:30:05;8.93;;;1.90;;
54953;SDS011;40855;51.072;5.402;2023-03-31T03:32:32;6.97;;;1.67;;
54953;SDS011;40855;51.072;5.402;2023-03-31T03:35:01;4.65;;;1.20;;
54953;SDS011;40855;51.072;5.402;2023-03-31T03:37:28;7.20;;;1.27;;
54953;SDS011;40855;51.072;5.402;2023-03-31T03:39:55;8.18;;;1.48;;
54953;SDS011;40855;51.072;5.402;2023-03-31T03:42:21;10.45;;;1.48;;
54953;SDS011;40855;51.072;5.402;2023-03-31T03:44:46;13.85;;;1.83;;
54953;SDS011;40855;51.072;5.402;2023-03-31T03:47:12;12.75;;;1.27;;
54953;SDS011;40855;51.072;5.402;2023-03-31T03:49:38;6.07;;;1.15;;
54953;SDS011;40855;51.072;5.402;2023-03-31T03:52:04;11.60;;;1.45;;
54953;SDS011;40855;51.072;5.402;2023-03-31T03:54:30;6.50;;;1.30;;
54953;SDS011;40855;51.072;5.402;2023-03-31T03:56:56;9.63;;;1.48;;
54953;SDS011;40855;51.072;5.402;2023-03-31T03:59:21;11.05;;;1.73;;
54953;SDS011;40855;51.072;5.402;2023-03-31T04:01:47;8.68;;;1.33;;
54953;SDS011;40855;51.072;5.402;2023-03-31T04:04:13;10.35;;;1.60;;
54953;SDS011;40855;51.072;5.402;2023-03-31T04:06:39;7.25;;;1.13;;
54953;SDS011;40855;51.072;5.402;2023-03-31T04:09:05;8.27;;;1.15;;
54953;SDS011;40855;51.072;5.402;2023-03-31T04:11:31;11.20;;;1.50;;
54953;SDS011;40855;51.072;5.402;2023-03-31T04:13:57;13.70;;;1.77;;
54953;SDS011;40855;51.072;5.402;2023-03-31T04:16:22;5.03;;;1.20;;
54953;SDS011;40855;51.072;5.402;2023-03-31T04:18:50;5.43;;;1.27;;
54953;SDS011;40855;51.072;5.402;2023-03-31T04:21:21;7.97;;;1.23;;
54953;SDS011;40855;51.072;5.402;2023-03-31T04:23:47;8.90;;;1.48;;
54953;SDS011;40855;51.072;5.402;2023-03-31T04:26:22;7.05;;;1.38;;
54953;SDS011;40855;51.072;5.402;2023-03-31T04:28:55;9.35;;;1.35;;
54953;SDS011;40855;51.072;5.402;2023-03-31T04:31:24;10.48;;;1.27;;
54953;SDS011;40855;51.072;5.402;2023-03-31T04:33:51;8.25;;;1.27;;
54953;SDS011;40855;51.072;5.402;2023-03-31T04:36:25;7.32;;;1.25;;
54953;SDS011;40855;51.072;5.402;2023-03-31T04:38:50;9.20;;;1.08;;
54953;SDS011;40855;51.072;5.402;2023-03-31T04:41:18;9.25;;;1.45;;
54953;SDS011;40855;51.072;5.402;2023-03-31T04:43:45;11.15;;;1.52;;
54953;SDS011;40855;51.072;5.402;2023-03-31T04:46:11;7.38;;;1.17;;
54953;SDS011;40855;51.072;5.402;2023-03-31T04:48:37;11.88;;;1.52;;
54953;SDS011;40855;51.072;5.402;2023-03-31T04:51:03;7.65;;;1.50;;
54953;SDS011;40855;51.072;5.402;2023-03-31T04:53:29;8.38;;;1.17;;
54953;SDS011;40855;51.072;5.402;2023-03-31T04:55:55;14.65;;;1.42;;
54953;SDS011;40855;51.072;5.402;2023-03-31T04:58:21;10.10;;;1.50;;
54953;SDS011;40855;51.072;5.402;2023-03-31T05:00:47;6.82;;;1.10;;
54953;SDS011;40855;51.072;5.402;2023-03-31T05:03:13;9.18;;;1.60;;
54953;SDS011;40855;51.072;5.402;2023-03-31T05:05:38;6.45;;;1.25;;
54953;SDS011;40855;51.072;5.402;2023-03-31T05:08:04;9.27;;;1.45;;
54953;SDS011;40855;51.072;5.402;2023-03-31T05:10:30;11.80;;;1.42;;
54953;SDS011;40855;51.072;5.402;2023-03-31T05:12:56;8.13;;;1.27;;
54953;SDS011;40855;51.072;5.402;2023-03-31T05:15:22;12.57;;;1.63;;
54953;SDS011;40855;51.072;5.402;2023-03-31T05:17:50;8.52;;;1.67;;
54953;SDS011;40855;51.072;5.402;2023-03-31T05:20:17;9.07;;;1.20;;
54953;SDS011;40855;51.072;5.402;2023-03-31T05:22:44;12.43;;;1.50;;
54953;SDS011;40855;51.072;5.402;2023-03-31T05:25:10;9.80;;;1.98;;
54953;SDS011;40855;51.072;5.402;2023-03-31T05:27:43;9.25;;;1.85;;
54953;SDS011;40855;51.072;5.402;2023-03-31T05:30:13;7.65;;;1.27;;
54953;SDS011;40855;51.072;5.402;2023-03-31T05:32:39;6.80;;;1.52;;
54953;SDS011;40855;51.072;5.402;2023-03-31T05:35:05;12.40;;;1.88;;
54953;SDS011;40855;51.072;5.402;2023-03-31T05:37:31;11.68;;;1.92;;
54953;SDS011;40855;51.072;5.402;2023-03-31T05:39:57;13.88;;;1.88;;
54953;SDS011;40855;51.072;5.402;2023-03-31T05:42:23;12.90;;;1.52;;
54953;SDS011;40855;51.072;5.402;2023-03-31T05:44:49;8.73;;;1.85;;
54953;SDS011;40855;51.072;5.402;2023-03-31T05:47:14;11.82;;;1.40;;
54953;SDS011;40855;51.072;5.402;2023-03-31T05:49:41;9.98;;;1.55;;
54953;SDS011;40855;51.072;5.402;2023-03-31T05:52:07;11.27;;;1.95;;
54953;SDS011;40855;51.072;5.402;2023-03-31T05:54:33;14.40;;;1.88;;
54953;SDS011;40855;51.072;5.402;2023-03-31T05:56:59;17.70;;;1.83;;
54953;SDS011;40855;51.072;5.402;2023-03-31T05:59:25;12.20;;;2.13;;
54953;SDS011;40855;51.072;5.402;2023-03-31T06:01:50;13.73;;;1.98;;
54953;SDS011;40855;51.072;5.402;2023-03-31T06:04:16;7.68;;;2.00;;
54953;SDS011;40855;51.072;5.402;2023-03-31T06:06:42;8.77;;;1.88;;
54953;SDS011;40855;51.072;5.402;2023-03-31T06:09:08;12.57;;;1.92;;
54953;SDS011;40855;51.072;5.402;2023-03-31T06:11:36;11.80;;;1.85;;
54953;SDS011;40855;51.072;5.402;2023-03-31T06:14:02;8.57;;;1.50;;
54953;SDS011;40855;51.072;5.402;2023-03-31T06:16:28;9.98;;;1.83;;
54953;SDS011;40855;51.072;5.402;2023-03-31T06:18:53;8.43;;;2.30;;
54953;SDS011;40855;51.072;5.402;2023-03-31T06:21:20;14.40;;;2.10;;
54953;SDS011;40855;51.072;5.402;2023-03-31T06:23:45;10.25;;;1.63;;
54953;SDS011;40855;51.072;5.402;2023-03-31T06:26:16;14.52;;;2.17;;
54953;SDS011;40855;51.072;5.402;2023-03-31T06:28:43;12.27;;;2.03;;
54953;SDS011;40855;51.072;5.402;2023-03-31T06:31:11;16.45;;;2.10;;
54953;SDS011;40855;51.072;5.402;2023-03-31T06:33:39;9.82;;;1.88;;
54953;SDS011;40855;51.072;5.402;2023-03-31T06:36:07;10.20;;;2.10;;
54953;SDS011;40855;51.072;5.402;2023-03-31T06:38:34;12.32;;;2.30;;
54953;SDS011;40855;51.072;5.402;2023-03-31T06:41:02;9.13;;;1.67;;
54953;SDS011;40855;51.072;5.402;2023-03-31T06:43:28;14.50;;;2.03;;
54953;SDS011;40855;51.072;5.402;2023-03-31T06:45:54;7.95;;;1.60;;
54953;SDS011;40855;51.072;5.402;2023-03-31T06:48:24;11.48;;;2.60;;
54953;SDS011;40855;51.072;5.402;2023-03-31T06:50:50;14.35;;;2.65;;
54953;SDS011;40855;51.072;5.402;2023-03-31T06:53:17;14.15;;;2.42;;
54953;SDS011;40855;51.072;5.402;2023-03-31T06:55:42;13.65;;;2.30;;
54953;SDS011;40855;51.072;5.402;2023-03-31T06:58:08;7.07;;;1.75;;
54953;SDS011;40855;51.072;5.402;2023-03-31T07:00:35;12.32;;;2.25;;
54953;SDS011;40855;51.072;5.402;2023-03-31T07:03:02;14.30;;;2.33;;
54953;SDS011;40855;51.072;5.402;2023-03-31T07:05:28;16.10;;;2.55;;
54953;SDS011;40855;51.072;5.402;2023-03-31T07:07:55;18.13;;;2.95;;
54953;SDS011;40855;51.072;5.402;2023-03-31T07:10:23;11.77;;;2.33;;
54953;SDS011;40855;51.072;5.402;2023-03-31T07:12:50;15.73;;;2.50;;
54953;SDS011;40855;51.072;5.402;2023-03-31T07:15:16;16.20;;;2.38;;
54953;SDS011;40855;51.072;5.402;2023-03-31T07:17:43;17.13;;;2.28;;
54953;SDS011;40855;51.072;5.402;2023-03-31T07:20:13;19.10;;;2.67;;
54953;SDS011;40855;51.072;5.402;2023-03-31T07:22:40;12.98;;;2.50;;
54953;SDS011;40855;51.072;5.402;2023-03-31T07:25:11;18.92;;;2.55;;
54953;SDS011;40855;51.072;5.402;2023-03-31T07:27:38;13.88;;;2.92;;
54953;SDS011;40855;51.072;5.402;2023-03-31T07:30:05;21.02;;;3.13;;
54953;SDS011;40855;51.072;5.402;2023-03-31T07:32:31;15.98;;;2.30;;
54953;SDS011;40855;51.072;5.402;2023-03-31T07:34:57;24.73;;;3.35;;
54953;SDS011;40855;51.072;5.402;2023-03-31T07:37:23;16.23;;;2.60;;
54953;SDS011;40855;51.072;5.402;2023-03-31T07:39:49;20.67;;;2.65;;
54953;SDS011;40855;51.072;5.402;2023-03-31T07:42:15;19.77;;;2.95;;
54953;SDS011;40855;51.072;5.402;2023-03-31T07:44:40;11.85;;;2.03;;
54953;SDS011;40855;51.072;5.402;2023-03-31T07:47:06;16.45;;;2.40;;
54953;SDS011;40855;51.072;5.402;2023-03-31T07:49:32;14.85;;;2.72;;
54953;SDS011;40855;51.072;5.402;2023-03-31T07:51:59;14.27;;;2.50;;
54953;SDS011;40855;51.072;5.402;2023-03-31T07:54:25;18.50;;;2.92;;
54953;SDS011;40855;51.072;5.402;2023-03-31T07:56:52;12.82;;;2.20;;
54953;SDS011;40855;51.072;5.402;2023-03-31T07:59:17;15.63;;;2.50;;
54953;SDS011;40855;51.072;5.402;2023-03-31T08:01:44;16.60;;;2.58;;
54953;SDS011;40855;51.072;5.402;2023-03-31T08:04:11;14.05;;;2.65;;
54953;SDS011;40855;51.072;5.402;2023-03-31T08:06:37;17.00;;;3.03;;
54953;SDS011;40855;51.072;5.402;2023-03-31T08:09:03;18.10;;;3.15;;
54953;SDS011;40855;51.072;5.402;2023-03-31T08:11:31;15.13;;;2.47;;
54953;SDS011;40855;51.072;5.402;2023-03-31T08:13:56;17.83;;;3.00;;
54953;SDS011;40855;51.072;5.402;2023-03-31T08:16:22;16.35;;;2.92;;
54953;SDS011;40855;51.072;5.402;2023-03-31T08:18:48;20.65;;;3.22;;
54953;SDS011;40855;51.072;5.402;2023-03-31T08:21:13;17.60;;;2.87;;
54953;SDS011;40855;51.072;5.402;2023-03-31T08:23:39;15.75;;;2.35;;
54953;SDS011;40855;51.072;5.402;2023-03-31T08:26:15;18.42;;;2.47;;
54953;SDS011;40855;51.072;5.402;2023-03-31T08:28:45;24.15;;;3.60;;
54953;SDS011;40855;51.072;5.402;2023-03-31T08:31:14;20.17;;;2.55;;
54953;SDS011;40855;51.072;5.402;2023-03-31T08:33:42;16.90;;;2.38;;
54953;SDS011;40855;51.072;5.402;2023-03-31T08:36:08;17.05;;;2.78;;
54953;SDS011;40855;51.072;5.402;2023-03-31T08:38:43;17.08;;;3.08;;
54953;SDS011;40855;51.072;5.402;2023-03-31T08:44:49;17.33;;;2.67;;
54953;SDS011;40855;51.072;5.402;2023-03-31T08:47:15;16.63;;;3.00;;
54953;SDS011;40855;51.072;5.402;2023-03-31T08:49:48;17.63;;;3.22;;
54953;SDS011;40855;51.072;5.402;2023-03-31T08:52:18;21.23;;;3.67;;
54953;SDS011;40855;51.072;5.402;2023-03-31T08:54:50;19.73;;;2.83;;
54953;SDS011;40855;51.072;5.402;2023-03-31T08:57:22;16.92;;;3.25;;
54953;SDS011;40855;51.072;5.402;2023-03-31T08:59:52;22.23;;;3.72;;
54953;SDS011;40855;51.072;5.402;2023-03-31T09:19:40;19.42;;;3.10;;
54953;SDS011;40855;51.072;5.402;2023-03-31T09:22:21;18.08;;;3.25;;
54953;SDS011;40855;51.072;5.402;2023-03-31T09:27:19;18.48;;;3.22;;
54953;SDS011;40855;51.072;5.402;2023-03-31T09:29:47;19.95;;;2.47;;
54953;SDS011;40855;51.072;5.402;2023-03-31T09:32:24;23.88;;;2.70;;
54953;SDS011;40855;51.072;5.402;2023-03-31T09:34:55;14.82;;;2.28;;
54953;SDS011;40855;51.072;5.402;2023-03-31T09:37:26;12.90;;;2.40;;
54953;SDS011;40855;51.072;5.402;2023-03-31T09:39:59;12.43;;;2.85;;
54953;SDS011;40855;51.072;5.402;2023-03-31T09:44:58;10.80;;;1.77;;
54953;SDS011;40855;51.072;5.402;2023-03-31T09:47:28;15.23;;;2.25;;
54953;SDS011;40855;51.072;5.402;2023-03-31T09:49:58;10.15;;;2.22;;
54953;SDS011;40855;51.072;5.402;2023-03-31T09:54:58;9.25;;;1.48;;
54953;SDS011;40855;51.072;5.402;2023-03-31T09:57:28;7.07;;;1.55;;
54953;SDS011;40855;51.072;5.402;2023-03-31T10:02:55;12.70;;;1.67;;
54953;SDS011;40855;51.072;5.402;2023-03-31T10:10:48;8.77;;;1.85;;
54953;SDS011;40855;51.072;5.402;2023-03-31T10:13:21;6.47;;;1.75;;
54953;SDS011;40855;51.072;5.402;2023-03-31T10:15:53;8.10;;;1.67;;
54953;SDS011;40855;51.072;5.402;2023-03-31T10:18:20;13.25;;;1.80;;
54953;SDS011;40855;51.072;5.402;2023-03-31T10:20:56;11.32;;;1.98;;
54953;SDS011;40855;51.072;5.402;2023-03-31T10:23:27;15.90;;;2.13;;
54953;SDS011;40855;51.072;5.402;2023-03-31T10:25:56;8.80;;;1.70;;
54953;SDS011;40855;51.072;5.402;2023-03-31T10:28:22;9.73;;;2.05;;
54953;SDS011;40855;51.072;5.402;2023-03-31T10:30:49;11.45;;;2.45;;
54953;SDS011;40855;51.072;5.402;2023-03-31T10:33:23;9.05;;;2.28;;
54953;SDS011;40855;51.072;5.402;2023-03-31T10:35:55;12.25;;;2.22;;
54953;SDS011;40855;51.072;5.402;2023-03-31T10:38:24;10.32;;;2.05;;
54953;SDS011;40855;51.072;5.402;2023-03-31T10:40:54;18.38;;;2.10;;
54953;SDS011;40855;51.072;5.402;2023-03-31T10:43:35;18.52;;;2.80;;
54953;SDS011;40855;51.072;5.402;2023-03-31T10:46:05;18.40;;;2.83;;
54953;SDS011;40855;51.072;5.402;2023-03-31T10:48:34;13.07;;;3.13;;
54953;SDS011;40855;51.072;5.402;2023-03-31T10:51:04;14.77;;;3.00;;
54953;SDS011;40855;51.072;5.402;2023-03-31T10:53:40;16.02;;;2.67;;
54953;SDS011;40855;51.072;5.402;2023-03-31T11:18:55;11.95;;;1.90;;
54953;SDS011;40855;51.072;5.402;2023-03-31T11:41:04;17.90;;;2.67;;
54953;SDS011;40855;51.072;5.402;2023-03-31T11:43:41;19.40;;;3.10;;
54953;SDS011;40855;51.072;5.402;2023-03-31T11:46:18;17.35;;;2.38;;
54953;SDS011;40855;51.072;5.402;2023-03-31T11:51:36;16.42;;;2.58;;
54953;SDS011;40855;51.072;5.402;2023-03-31T11:54:15;14.63;;;2.85;;
54953;SDS011;40855;51.072;5.402;2023-03-31T11:56:49;14.75;;;2.30;;
54953;SDS011;40855;51.072;5.402;2023-03-31T11:59:16;15.20;;;2.33;;
54953;SDS011;40855;51.072;5.402;2023-03-31T12:01:53;14.35;;;2.08;;
54953;SDS011;40855;51.072;5.402;2023-03-31T12:04:42;10.30;;;1.90;;
54953;SDS011;40855;51.072;5.402;2023-03-31T12:07:44;10.30;;;2.00;;
54953;SDS011;40855;51.072;5.402;2023-03-31T12:16:02;9.85;;;1.55;;
54953;SDS011;40855;51.072;5.402;2023-03-31T12:18:30;9.77;;;1.98;;
54953;SDS011;40855;51.072;5.402;2023-03-31T12:21:01;9.98;;;1.80;;
54953;SDS011;40855;51.072;5.402;2023-03-31T12:23:29;10.23;;;1.90;;
54953;SDS011;40855;51.072;5.402;2023-03-31T12:28:59;9.55;;;1.70;;
54953;SDS011;40855;51.072;5.402;2023-03-31T12:31:29;13.40;;;2.17;;
54953;SDS011;40855;51.072;5.402;2023-03-31T12:34:00;6.07;;;1.50;;
54953;SDS011;40855;51.072;5.402;2023-03-31T12:50:31;11.23;;;2.20;;
54953;SDS011;40855;51.072;5.402;2023-03-31T12:53:16;8.85;;;1.92;;
54953;SDS011;40855;51.072;5.402;2023-03-31T12:55:48;12.05;;;2.53;;
54953;SDS011;40855;51.072;5.402;2023-03-31T13:01:02;12.93;;;2.15;;
54953;SDS011;40855;51.072;5.402;2023-03-31T13:11:45;10.90;;;1.83;;
54953;SDS011;40855;51.072;5.402;2023-03-31T13:14:24;12.20;;;1.83;;
54953;SDS011;40855;51.072;5.402;2023-03-31T13:17:12;13.52;;;2.47;;
54953;SDS011;40855;51.072;5.402;2023-03-31T13:19:50;16.70;;;2.35;;
54953;SDS011;40855;51.072;5.402;2023-03-31T13:25:36;10.02;;;1.63;;
54953;SDS011;40855;51.072;5.402;2023-03-31T13:28:15;12.07;;;1.85;;
54953;SDS011;40855;51.072;5.402;2023-03-31T13:31:06;14.30;;;2.50;;
54953;SDS011;40855;51.072;5.402;2023-03-31T13:39:10;12.60;;;2.05;;
54953;SDS011;40855;51.072;5.402;2023-03-31T13:42:17;8.10;;;1.50;;
54953;SDS011;40855;51.072;5.402;2023-03-31T13:45:18;9.23;;;1.45;;
54953;SDS011;40855;51.072;5.402;2023-03-31T13:50:44;7.88;;;1.67;;
54953;SDS011;40855;51.072;5.402;2023-03-31T14:08:11;5.57;;;0.82;;
54953;SDS011;40855;51.072;5.402;2023-03-31T14:10:44;4.07;;;0.93;;
54953;SDS011;40855;51.072;5.402;2023-03-31T14:15:41;6.13;;;1.08;;
54953;SDS011;40855;51.072;5.402;2023-03-31T14:18:15;5.40;;;0.85;;
54953;SDS011;40855;51.072;5.402;2023-03-31T14:23:29;4.95;;;0.98;;
54953;SDS011;40855;51.072;5.402;2023-03-31T14:28:58;4.57;;;1.13;;
54953;SDS011;40855;51.072;5.402;2023-03-31T14:37:28;4.32;;;0.85;;
54953;SDS011;40855;51.072;5.402;2023-03-31T14:39:55;6.30;;;0.98;;
54953;SDS011;40855;51.072;5.402;2023-03-31T14:44:54;2.38;;;0.80;;
54953;SDS011;40855;51.072;5.402;2023-03-31T14:47:25;3.55;;;0.90;;
54953;SDS011;40855;51.072;5.402;2023-03-31T14:52:27;2.80;;;0.50;;
54953;SDS011;40855;51.072;5.402;2023-03-31T14:54:55;4.63;;;0.80;;
54953;SDS011;40855;51.072;5.402;2023-03-31T14:57:24;4.72;;;0.70;;
54953;SDS011;40855;51.072;5.402;2023-03-31T14:59:55;2.67;;;0.70;;
54953;SDS011;40855;51.072;5.402;2023-03-31T15:02:32;5.53;;;1.08;;
54953;SDS011;40855;51.072;5.402;2023-03-31T15:05:04;1.60;;;0.47;;
54953;SDS011;40855;51.072;5.402;2023-03-31T15:07:33;1.98;;;0.55;;
54953;SDS011;40855;51.072;5.402;2023-03-31T15:10:00;3.88;;;0.73;;
54953;SDS011;40855;51.072;5.402;2023-03-31T15:12:27;2.47;;;0.85;;
54953;SDS011;40855;51.072;5.402;2023-03-31T15:14:56;1.30;;;0.40;;
54953;SDS011;40855;51.072;5.402;2023-03-31T15:17:28;1.95;;;0.60;;
54953;SDS011;40855;51.072;5.402;2023-03-31T15:20:00;2.80;;;0.50;;
54953;SDS011;40855;51.072;5.402;2023-03-31T15:22:45;3.55;;;0.50;;
54953;SDS011;40855;51.072;5.402;2023-03-31T15:25:12;2.67;;;0.43;;
54953;SDS011;40855;51.072;5.402;2023-03-31T15:27:42;3.55;;;0.60;;
54953;SDS011;40855;51.072;5.402;2023-03-31T15:30:20;4.30;;;0.50;;
54953;SDS011;40855;51.072;5.402;2023-03-31T15:32:48;1.67;;;0.45;;
54953;SDS011;40855;51.072;5.402;2023-03-31T15:35:20;2.50;;;0.55;;
54953;SDS011;40855;51.072;5.402;2023-03-31T15:37:50;2.85;;;0.47;;
54953;SDS011;40855;51.072;5.402;2023-03-31T15:40:28;2.05;;;0.63;;
54953;SDS011;40855;51.072;5.402;2023-03-31T15:43:06;6.35;;;0.60;;
54953;SDS011;40855;51.072;5.402;2023-03-31T15:48:13;2.83;;;0.60;;
54953;SDS011;40855;51.072;5.402;2023-03-31T15:58:56;2.58;;;0.40;;
54953;SDS011;40855;51.072;5.402;2023-03-31T16:04:21;3.40;;;0.50;;
54953;SDS011;40855;51.072;5.402;2023-03-31T16:06:49;7.28;;;0.50;;
54953;SDS011;40855;51.072;5.402;2023-03-31T16:09:27;2.65;;;0.40;;
54953;SDS011;40855;51.072;5.402;2023-03-31T16:12:09;4.82;;;0.50;;
54953;SDS011;40855;51.072;5.402;2023-03-31T16:14:48;2.22;;;0.75;;
54953;SDS011;40855;51.072;5.402;2023-03-31T16:19:57;2.90;;;0.50;;
54953;SDS011;40855;51.072;5.402;2023-03-31T16:22:33;4.40;;;0.85;;
54953;SDS011;40855;51.072;5.402;2023-03-31T16:25:07;4.10;;;0.70;;
54953;SDS011;40855;51.072;5.402;2023-03-31T16:27:38;2.42;;;0.60;;
54953;SDS011;40855;51.072;5.402;2023-03-31T16:30:09;5.32;;;0.57;;
54953;SDS011;40855;51.072;5.402;2023-03-31T16:32:37;2.97;;;0.50;;
54953;SDS011;40855;51.072;5.402;2023-03-31T16:35:04;2.35;;;0.52;;
54953;SDS011;40855;51.072;5.402;2023-03-31T16:37:30;2.10;;;0.90;;
54953;SDS011;40855;51.072;5.402;2023-03-31T16:39:56;5.00;;;0.93;;
54953;SDS011;40855;51.072;5.402;2023-03-31T16:42:22;2.40;;;0.80;;
54953;SDS011;40855;51.072;5.402;2023-03-31T16:44:48;3.00;;;1.00;;
54953;SDS011;40855;51.072;5.402;2023-03-31T16:47:14;2.65;;;1.00;;
54953;SDS011;40855;51.072;5.402;2023-03-31T16:49:39;4.30;;;0.85;;
54953;SDS011;40855;51.072;5.402;2023-03-31T16:52:05;2.28;;;0.85;;
54953;SDS011;40855;51.072;5.402;2023-03-31T16:54:32;5.03;;;0.85;;
54953;SDS011;40855;51.072;5.402;2023-03-31T16:56:59;3.28;;;1.08;;
54953;SDS011;40855;51.072;5.402;2023-03-31T16:59:25;3.55;;;1.00;;
54953;SDS011;40855;51.072;5.402;2023-03-31T17:01:51;3.90;;;0.80;;
54953;SDS011;40855;51.072;5.402;2023-03-31T17:04:16;6.32;;;1.25;;
54953;SDS011;40855;51.072;5.402;2023-03-31T17:06:43;5.95;;;0.88;;
54953;SDS011;40855;51.072;5.402;2023-03-31T17:09:09;3.50;;;0.98;;
54953;SDS011;40855;51.072;5.402;2023-03-31T17:11:35;3.95;;;1.00;;
54953;SDS011;40855;51.072;5.402;2023-03-31T17:14:01;4.65;;;0.95;;
54953;SDS011;40855;51.072;5.402;2023-03-31T17:16:29;7.47;;;1.30;;
54953;SDS011;40855;51.072;5.402;2023-03-31T17:18:55;7.93;;;1.70;;
54953;SDS011;40855;51.072;5.402;2023-03-31T17:21:20;6.38;;;1.10;;
54953;SDS011;40855;51.072;5.402;2023-03-31T17:23:47;6.25;;;1.20;;
54953;SDS011;40855;51.072;5.402;2023-03-31T17:26:13;8.35;;;1.08;;
54953;SDS011;40855;51.072;5.402;2023-03-31T17:28:40;4.65;;;1.20;;
54953;SDS011;40855;51.072;5.402;2023-03-31T17:31:16;3.42;;;0.90;;
54953;SDS011;40855;51.072;5.402;2023-03-31T17:33:43;9.18;;;1.10;;
54953;SDS011;40855;51.072;5.402;2023-03-31T17:36:09;5.20;;;1.00;;
54953;SDS011;40855;51.072;5.402;2023-03-31T17:38:35;2.63;;;0.93;;
54953;SDS011;40855;51.072;5.402;2023-03-31T17:41:04;8.07;;;1.00;;
54953;SDS011;40855;51.072;5.402;2023-03-31T17:43:30;4.05;;;0.88;;
54953;SDS011;40855;51.072;5.402;2023-03-31T17:46:04;6.25;;;0.80;;
54953;SDS011;40855;51.072;5.402;2023-03-31T17:48:31;3.42;;;0.75;;
54953;SDS011;40855;51.072;5.402;2023-03-31T17:51:04;4.28;;;0.88;;
54953;SDS011;40855;51.072;5.402;2023-03-31T17:53:32;6.30;;;0.90;;
54953;SDS011;40855;51.072;5.402;2023-03-31T17:55:59;6.07;;;1.10;;
54953;SDS011;40855;51.072;5.402;2023-03-31T17:58:26;3.10;;;0.70;;
54953;SDS011;40855;51.072;5.402;2023-03-31T18:00:52;2.33;;;0.85;;
54953;SDS011;40855;51.072;5.402;2023-03-31T18:03:18;3.60;;;1.02;;
54953;SDS011;40855;51.072;5.402;2023-03-31T18:05:44;4.72;;;0.90;;
54953;SDS011;40855;51.072;5.402;2023-03-31T18:08:10;4.95;;;0.95;;
54953;SDS011;40855;51.072;5.402;2023-03-31T18:10:36;3.78;;;0.90;;
54953;SDS011;40855;51.072;5.402;2023-03-31T18:13:02;6.47;;;0.98;;
54953;SDS011;40855;51.072;5.402;2023-03-31T18:15:28;3.05;;;0.80;;
54953;SDS011;40855;51.072;5.402;2023-03-31T18:17:53;3.28;;;0.95;;
54953;SDS011;40855;51.072;5.402;2023-03-31T18:20:20;7.03;;;1.27;;
54953;SDS011;40855;51.072;5.402;2023-03-31T18:22:47;3.58;;;1.05;;
54953;SDS011;40855;51.072;5.402;2023-03-31T18:25:13;3.53;;;1.00;;
54953;SDS011;40855;51.072;5.402;2023-03-31T18:27:39;5.13;;;1.15;;
54953;SDS011;40855;51.072;5.402;2023-03-31T18:30:06;3.78;;;0.95;;
54953;SDS011;40855;51.072;5.402;2023-03-31T18:32:32;5.00;;;1.60;;
54953;SDS011;40855;51.072;5.402;2023-03-31T18:34:58;8.13;;;1.33;;
54953;SDS011;40855;51.072;5.402;2023-03-31T18:37:23;6.93;;;1.52;;